sensor_id;sensor_type;location;lat;lon;timestamp;pressure;altitude;pressure_sealevel;temperature;humidity
58471;BME280;44258;51.288;12.068;2023-07-31T00:01:33;100084.72;;;17.92;57.24
58471;BME280;44258;51.288;12.068;2023-07-31T00:04:20;100092.75;;;17.93;57.22
58471;BME280;44258;51.288;12.068;2023-07-31T00:07:06;100095.91;;;17.99;57.06
58471;BME280;44258;51.288;12.068;2023-07-31T00:09:53;100095.66;;;18.11;56.68
58471;BME280;44258;51.288;12.068;2023-07-31T00:12:43;100084.94;;;18.20;56.51
58471;BME280;44258;51.288;12.068;2023-07-31T00:15:30;100097.25;;;18.24;56.43
58471;BME280;44258;51.288;12.068;2023-07-31T00:18:18;100090.25;;;18.41;56.18
58471;BME280;44258;51.288;12.068;2023-07-31T00:21:05;100093.13;;;18.39;56.21
58471;BME280;44258;51.288;12.068;2023-07-31T00:23:52;100089.25;;;18.42;55.85
58471;BME280;44258;51.288;12.068;2023-07-31T00:26:42;100088.66;;;18.48;56.27
58471;BME280;44258;51.288;12.068;2023-07-31T00:29:31;100085.94;;;18.48;55.51
58471;BME280;44258;51.288;12.068;2023-07-31T00:32:20;100086.41;;;18.53;55.52
58471;BME280;44258;51.288;12.068;2023-07-31T00:35:11;100081.06;;;18.32;55.71
58471;BME280;44258;51.288;12.068;2023-07-31T00:37:58;100084.38;;;18.45;55.39
58471;BME280;44258;51.288;12.068;2023-07-31T00:40:45;100084.66;;;18.52;54.99
58471;BME280;44258;51.288;12.068;2023-07-31T00:43:32;100086.25;;;18.54;54.90
58471;BME280;44258;51.288;12.068;2023-07-31T00:46:19;100082.97;;;18.51;55.36
58471;BME280;44258;51.288;12.068;2023-07-31T00:49:07;100079.34;;;18.21;55.99
58471;BME280;44258;51.288;12.068;2023-07-31T00:51:55;100077.38;;;18.52;55.56
58471;BME280;44258;51.288;12.068;2023-07-31T00:54:43;100074.22;;;18.57;55.62
58471;BME280;44258;51.288;12.068;2023-07-31T00:57:31;100083.94;;;18.60;55.93
58471;BME280;44258;51.288;12.068;2023-07-31T01:00:19;100075.91;;;18.68;55.51
58471;BME280;44258;51.288;12.068;2023-07-31T01:03:06;100076.63;;;18.70;55.40
58471;BME280;44258;51.288;12.068;2023-07-31T01:06:02;100078.19;;;18.72;55.23
58471;BME280;44258;51.288;12.068;2023-07-31T01:08:58;100075.78;;;18.69;55.14
58471;BME280;44258;51.288;12.068;2023-07-31T01:11:53;100069.03;;;18.64;55.11
58471;BME280;44258;51.288;12.068;2023-07-31T01:14:51;100072.34;;;18.58;55.52
58471;BME280;44258;51.288;12.068;2023-07-31T01:17:38;100065.91;;;18.59;55.35
58471;BME280;44258;51.288;12.068;2023-07-31T01:20:26;100065.91;;;18.59;55.67
58471;BME280;44258;51.288;12.068;2023-07-31T01:23:35;100054.72;;;18.52;55.48
58471;BME280;44258;51.288;12.068;2023-07-31T01:26:28;100056.56;;;18.42;55.71
58471;BME280;44258;51.288;12.068;2023-07-31T01:29:22;100057.28;;;18.34;55.67
58471;BME280;44258;51.288;12.068;2023-07-31T01:32:12;100062.31;;;18.39;55.89
58471;BME280;44258;51.288;12.068;2023-07-31T01:34:59;100050.41;;;18.40;56.71
58471;BME280;44258;51.288;12.068;2023-07-31T01:37:46;100055.00;;;18.39;56.68
58471;BME280;44258;51.288;12.068;2023-07-31T01:40:33;100053.00;;;18.61;55.80
58471;BME280;44258;51.288;12.068;2023-07-31T01:43:21;100046.13;;;18.57;55.98
58471;BME280;44258;51.288;12.068;2023-07-31T01:46:10;100053.28;;;18.48;56.08
58471;BME280;44258;51.288;12.068;2023-07-31T01:48:57;100043.28;;;18.39;56.68
58471;BME280;44258;51.288;12.068;2023-07-31T01:51:44;100039.53;;;18.40;56.53
58471;BME280;44258;51.288;12.068;2023-07-31T01:54:31;100040.81;;;18.36;56.65
58471;BME280;44258;51.288;12.068;2023-07-31T01:57:20;100035.94;;;18.39;56.93
58471;BME280;44258;51.288;12.068;2023-07-31T02:00:10;100033.50;;;18.36;56.84
58471;BME280;44258;51.288;12.068;2023-07-31T02:02:57;100027.91;;;18.38;57.20
58471;BME280;44258;51.288;12.068;2023-07-31T02:05:47;100025.91;;;18.30;57.08
58471;BME280;44258;51.288;12.068;2023-07-31T02:08:34;100031.34;;;18.30;57.85
58471;BME280;44258;51.288;12.068;2023-07-31T02:11:21;100020.06;;;18.25;58.20
58471;BME280;44258;51.288;12.068;2023-07-31T02:14:07;100020.03;;;18.54;56.86
58471;BME280;44258;51.288;12.068;2023-07-31T02:16:56;100013.47;;;18.37;57.57
58471;BME280;44258;51.288;12.068;2023-07-31T02:19:42;100009.44;;;18.31;57.95
58471;BME280;44258;51.288;12.068;2023-07-31T02:22:29;100012.03;;;18.23;58.08
58471;BME280;44258;51.288;12.068;2023-07-31T02:25:16;100006.28;;;18.36;58.39
58471;BME280;44258;51.288;12.068;2023-07-31T02:28:03;100001.41;;;18.40;58.34
58471;BME280;44258;51.288;12.068;2023-07-31T02:30:50;100003.16;;;18.41;57.96
58471;BME280;44258;51.288;12.068;2023-07-31T02:33:39;99996.53;;;18.43;58.29
58471;BME280;44258;51.288;12.068;2023-07-31T02:36:26;99997.97;;;18.47;58.34
58471;BME280;44258;51.288;12.068;2023-07-31T02:39:12;99995.94;;;18.69;57.95
58471;BME280;44258;51.288;12.068;2023-07-31T02:41:59;99993.81;;;18.53;57.95
58471;BME280;44258;51.288;12.068;2023-07-31T02:44:47;99991.09;;;18.53;58.28
58471;BME280;44258;51.288;12.068;2023-07-31T02:47:34;99984.34;;;18.57;58.28
58471;BME280;44258;51.288;12.068;2023-07-31T02:50:22;99987.06;;;18.57;58.02
58471;BME280;44258;51.288;12.068;2023-07-31T02:53:09;99987.22;;;18.56;58.50
58471;BME280;44258;51.288;12.068;2023-07-31T02:55:56;99984.34;;;18.57;58.13
58471;BME280;44258;51.288;12.068;2023-07-31T02:58:42;99980.34;;;18.42;58.65
58471;BME280;44258;51.288;12.068;2023-07-31T03:01:30;99983.38;;;18.39;59.23
58471;BME280;44258;51.288;12.068;2023-07-31T03:04:17;99981.66;;;18.38;58.70
58471;BME280;44258;51.288;12.068;2023-07-31T03:07:05;99983.44;;;18.66;58.82
58471;BME280;44258;51.288;12.068;2023-07-31T03:09:52;99987.09;;;18.47;58.50
58471;BME280;44258;51.288;12.068;2023-07-31T03:12:39;99986.47;;;18.63;58.17
58471;BME280;44258;51.288;12.068;2023-07-31T03:15:26;99981.19;;;18.52;58.11
58471;BME280;44258;51.288;12.068;2023-07-31T03:18:13;99985.66;;;18.43;58.77
58471;BME280;44258;51.288;12.068;2023-07-31T03:21:00;99981.25;;;18.32;59.15
58471;BME280;44258;51.288;12.068;2023-07-31T03:23:48;99972.31;;;18.50;58.95
58471;BME280;44258;51.288;12.068;2023-07-31T03:26:35;99978.50;;;18.32;59.61
58471;BME280;44258;51.288;12.068;2023-07-31T03:29:22;99976.66;;;18.33;59.86
58471;BME280;44258;51.288;12.068;2023-07-31T03:32:09;99970.50;;;18.21;59.78
58471;BME280;44258;51.288;12.068;2023-07-31T03:34:57;99975.09;;;18.11;60.60
58471;BME280;44258;51.288;12.068;2023-07-31T03:37:44;99967.75;;;18.11;60.48
58471;BME280;44258;51.288;12.068;2023-07-31T03:40:32;99963.75;;;18.06;61.18
58471;BME280;44258;51.288;12.068;2023-07-31T03:43:21;99959.78;;;18.10;61.19
58471;BME280;44258;51.288;12.068;2023-07-31T03:46:07;99956.59;;;18.24;60.46
58471;BME280;44258;51.288;12.068;2023-07-31T03:48:54;99951.31;;;18.23;61.01
58471;BME280;44258;51.288;12.068;2023-07-31T03:51:41;99955.31;;;18.28;61.11
58471;BME280;44258;51.288;12.068;2023-07-31T03:54:28;99963.88;;;18.04;61.84
58471;BME280;44258;51.288;12.068;2023-07-31T03:57:16;99962.03;;;17.85;62.61
58471;BME280;44258;51.288;12.068;2023-07-31T04:00:04;99961.69;;;17.69;63.14
58471;BME280;44258;51.288;12.068;2023-07-31T04:02:51;99954.28;;;17.61;63.35
58471;BME280;44258;51.288;12.068;2023-07-31T04:05:41;99951.25;;;17.64;63.51
58471;BME280;44258;51.288;12.068;2023-07-31T04:08:28;99943.38;;;17.51;64.16
58471;BME280;44258;51.288;12.068;2023-07-31T04:11:15;99940.91;;;17.29;65.20
58471;BME280;44258;51.288;12.068;2023-07-31T04:14:04;99943.31;;;17.22;66.02
58471;BME280;44258;51.288;12.068;2023-07-31T04:16:51;99936.19;;;17.31;65.58
58471;BME280;44258;51.288;12.068;2023-07-31T04:19:40;99945.31;;;17.30;65.92
58471;BME280;44258;51.288;12.068;2023-07-31T04:22:27;99948.38;;;17.46;65.14
58471;BME280;44258;51.288;12.068;2023-07-31T04:25:14;99939.34;;;17.46;65.43
58471;BME280;44258;51.288;12.068;2023-07-31T04:28:01;99930.47;;;17.34;65.63
58471;BME280;44258;51.288;12.068;2023-07-31T04:30:49;99933.22;;;17.53;65.24
58471;BME280;44258;51.288;12.068;2023-07-31T04:33:36;99930.59;;;17.23;66.47
58471;BME280;44258;51.288;12.068;2023-07-31T04:36:22;99924.72;;;17.27;66.29
58471;BME280;44258;51.288;12.068;2023-07-31T04:39:09;99930.91;;;17.39;66.16
58471;BME280;44258;51.288;12.068;2023-07-31T04:41:56;99919.34;;;17.47;65.80
58471;BME280;44258;51.288;12.068;2023-07-31T04:44:44;99918.44;;;17.27;66.91
58471;BME280;44258;51.288;12.068;2023-07-31T04:47:33;99917.72;;;17.25;67.37
58471;BME280;44258;51.288;12.068;2023-07-31T04:50:19;99922.50;;;17.11;68.50
58471;BME280;44258;51.288;12.068;2023-07-31T04:53:06;99923.56;;;17.20;68.98
58471;BME280;44258;51.288;12.068;2023-07-31T04:55:53;99911.31;;;16.95;70.46
58471;BME280;44258;51.288;12.068;2023-07-31T04:58:40;99911.78;;;17.10;69.83
58471;BME280;44258;51.288;12.068;2023-07-31T05:01:27;99917.03;;;17.02;70.60
58471;BME280;44258;51.288;12.068;2023-07-31T05:04:15;99918.94;;;17.11;70.15
58471;BME280;44258;51.288;12.068;2023-07-31T05:07:03;99922.94;;;17.07;70.65
58471;BME280;44258;51.288;12.068;2023-07-31T05:09:50;99916.47;;;17.08;70.73
58471;BME280;44258;51.288;12.068;2023-07-31T05:12:37;99922.50;;;17.11;71.31
58471;BME280;44258;51.288;12.068;2023-07-31T05:15:23;99910.38;;;17.15;70.48
58471;BME280;44258;51.288;12.068;2023-07-31T05:18:10;99920.88;;;17.30;69.77
58471;BME280;44258;51.288;12.068;2023-07-31T05:20:59;99911.50;;;17.13;70.74
58471;BME280;44258;51.288;12.068;2023-07-31T05:23:46;99924.97;;;17.14;70.99
58471;BME280;44258;51.288;12.068;2023-07-31T05:26:33;99917.66;;;17.15;70.92
58471;BME280;44258;51.288;12.068;2023-07-31T05:29:20;99920.91;;;17.49;69.54
58471;BME280;44258;51.288;12.068;2023-07-31T05:32:07;99923.34;;;17.43;69.98
58471;BME280;44258;51.288;12.068;2023-07-31T05:34:54;99921.03;;;17.38;70.08
58471;BME280;44258;51.288;12.068;2023-07-31T05:37:42;99909.47;;;17.56;69.32
58471;BME280;44258;51.288;12.068;2023-07-31T05:40:32;99918.03;;;17.41;69.56
58471;BME280;44258;51.288;12.068;2023-07-31T05:43:19;99920.47;;;17.44;69.80
58471;BME280;44258;51.288;12.068;2023-07-31T05:46:06;99924.19;;;17.63;69.15
58471;BME280;44258;51.288;12.068;2023-07-31T05:48:54;99919.19;;;17.39;69.54
58471;BME280;44258;51.288;12.068;2023-07-31T05:51:41;99921.19;;;17.46;69.59
58471;BME280;44258;51.288;12.068;2023-07-31T05:54:31;99916.34;;;17.60;68.70
58471;BME280;44258;51.288;12.068;2023-07-31T05:57:18;99927.94;;;17.62;69.12
58471;BME280;44258;51.288;12.068;2023-07-31T06:00:06;99926.91;;;17.63;68.93
58471;BME280;44258;51.288;12.068;2023-07-31T06:02:53;99922.38;;;17.63;68.96
58471;BME280;44258;51.288;12.068;2023-07-31T06:05:40;99927.22;;;17.60;68.56
58471;BME280;44258;51.288;12.068;2023-07-31T06:08:27;99925.38;;;17.70;68.25
58471;BME280;44258;51.288;12.068;2023-07-31T06:11:16;99933.25;;;17.83;67.61
58471;BME280;44258;51.288;12.068;2023-07-31T06:14:03;99930.09;;;17.78;67.94
58471;BME280;44258;51.288;12.068;2023-07-31T06:16:50;99928.81;;;17.82;68.28
58471;BME280;44258;51.288;12.068;2023-07-31T06:19:37;99922.81;;;17.98;67.00
58471;BME280;44258;51.288;12.068;2023-07-31T06:22:24;99921.63;;;17.71;67.76
58471;BME280;44258;51.288;12.068;2023-07-31T06:25:11;99926.69;;;17.85;67.40
58471;BME280;44258;51.288;12.068;2023-07-31T06:28:00;99926.50;;;17.77;67.59
58471;BME280;44258;51.288;12.068;2023-07-31T06:30:46;99932.53;;;17.61;68.22
58471;BME280;44258;51.288;12.068;2023-07-31T06:33:33;99932.25;;;17.74;67.72
58471;BME280;44258;51.288;12.068;2023-07-31T06:36:20;99928.97;;;17.90;67.00
58471;BME280;44258;51.288;12.068;2023-07-31T06:39:07;99939.09;;;17.78;66.94
58471;BME280;44258;51.288;12.068;2023-07-31T06:41:54;99937.81;;;17.72;67.59
58471;BME280;44258;51.288;12.068;2023-07-31T06:44:43;99945.84;;;17.93;66.49
58471;BME280;44258;51.288;12.068;2023-07-31T06:47:30;99945.41;;;18.08;66.68
58471;BME280;44258;51.288;12.068;2023-07-31T06:50:17;99950.44;;;18.22;66.03
58471;BME280;44258;51.288;12.068;2023-07-31T06:53:04;99945.00;;;18.22;65.60
58471;BME280;44258;51.288;12.068;2023-07-31T06:55:51;99948.31;;;18.16;65.17
58471;BME280;44258;51.288;12.068;2023-07-31T06:58:38;99956.56;;;18.05;66.45
58471;BME280;44258;51.288;12.068;2023-07-31T07:01:26;99957.03;;;18.20;65.26
58471;BME280;44258;51.288;12.068;2023-07-31T07:04:15;99965.63;;;18.15;65.32
58471;BME280;44258;51.288;12.068;2023-07-31T07:07:02;99958.03;;;18.19;65.49
58471;BME280;44258;51.288;12.068;2023-07-31T07:09:50;99950.72;;;18.29;65.48
58471;BME280;44258;51.288;12.068;2023-07-31T07:12:37;99942.38;;;18.40;65.15
58471;BME280;44258;51.288;12.068;2023-07-31T07:15:24;99951.13;;;18.34;64.90
58471;BME280;44258;51.288;12.068;2023-07-31T07:18:12;99953.72;;;18.36;65.05
58471;BME280;44258;51.288;12.068;2023-07-31T07:20:59;99956.31;;;18.27;64.98
58471;BME280;44258;51.288;12.068;2023-07-31T07:23:48;99956.16;;;18.29;65.05
58471;BME280;44258;51.288;12.068;2023-07-31T07:26:37;99957.59;;;18.23;64.82
58471;BME280;44258;51.288;12.068;2023-07-31T07:29:24;99960.31;;;18.23;65.08
58471;BME280;44258;51.288;12.068;2023-07-31T07:32:10;99954.28;;;18.49;63.93
58471;BME280;44258;51.288;12.068;2023-07-31T07:34:59;99956.09;;;18.58;63.97
58471;BME280;44258;51.288;12.068;2023-07-31T07:37:48;99956.41;;;18.55;64.36
58471;BME280;44258;51.288;12.068;2023-07-31T07:40:38;99951.09;;;18.53;64.30
58471;BME280;44258;51.288;12.068;2023-07-31T07:43:25;99946.09;;;18.49;64.21
58471;BME280;44258;51.288;12.068;2023-07-31T07:46:12;99950.63;;;18.68;63.84
58471;BME280;44258;51.288;12.068;2023-07-31T07:49:02;99944.00;;;18.70;63.76
58471;BME280;44258;51.288;12.068;2023-07-31T07:51:51;99945.75;;;18.71;63.90
58471;BME280;44258;51.288;12.068;2023-07-31T07:54:38;99944.94;;;18.61;64.37
58471;BME280;44258;51.288;12.068;2023-07-31T07:57:25;99946.00;;;18.78;63.43
58471;BME280;44258;51.288;12.068;2023-07-31T08:00:13;99946.53;;;18.91;63.22
58471;BME280;44258;51.288;12.068;2023-07-31T08:03:00;99952.97;;;18.90;63.85
58471;BME280;44258;51.288;12.068;2023-07-31T08:05:47;99944.81;;;18.90;63.52
58471;BME280;44258;51.288;12.068;2023-07-31T08:08:37;99931.44;;;19.07;63.09
58471;BME280;44258;51.288;12.068;2023-07-31T08:11:24;99931.09;;;19.20;62.38
58471;BME280;44258;51.288;12.068;2023-07-31T08:14:11;99923.72;;;19.30;62.43
58471;BME280;44258;51.288;12.068;2023-07-31T08:16:58;99921.97;;;19.57;62.10
58471;BME280;44258;51.288;12.068;2023-07-31T08:19:45;99916.38;;;19.76;61.23
58471;BME280;44258;51.288;12.068;2023-07-31T08:22:32;99920.66;;;19.97;60.52
58471;BME280;44258;51.288;12.068;2023-07-31T08:25:21;99915.19;;;19.97;60.98
58471;BME280;44258;51.288;12.068;2023-07-31T08:28:07;99908.59;;;20.25;59.98
58471;BME280;44258;51.288;12.068;2023-07-31T08:30:54;99907.50;;;20.36;59.66
58471;BME280;44258;51.288;12.068;2023-07-31T08:33:41;99912.91;;;20.28;59.49
58471;BME280;44258;51.288;12.068;2023-07-31T08:36:30;99921.13;;;20.10;59.38
58471;BME280;44258;51.288;12.068;2023-07-31T08:39:17;99912.47;;;19.79;59.77
58471;BME280;44258;51.288;12.068;2023-07-31T08:42:07;99926.44;;;19.76;59.55
58471;BME280;44258;51.288;12.068;2023-07-31T08:44:55;99918.03;;;19.87;60.45
58471;BME280;44258;51.288;12.068;2023-07-31T08:47:44;99923.84;;;19.92;59.65
58471;BME280;44258;51.288;12.068;2023-07-31T08:50:32;99920.34;;;20.00;59.38
58471;BME280;44258;51.288;12.068;2023-07-31T08:53:20;99924.22;;;20.15;59.44
58471;BME280;44258;51.288;12.068;2023-07-31T08:56:08;99913.16;;;19.99;59.22
58471;BME280;44258;51.288;12.068;2023-07-31T08:58:57;99915.31;;;19.87;59.74
58471;BME280;44258;51.288;12.068;2023-07-31T09:01:49;99918.31;;;20.02;59.09
58471;BME280;44258;51.288;12.068;2023-07-31T09:04:36;99910.00;;;19.85;59.74
58471;BME280;44258;51.288;12.068;2023-07-31T09:07:24;99914.19;;;20.16;59.60
58471;BME280;44258;51.288;12.068;2023-07-31T09:10:11;99913.69;;;20.20;59.44
58471;BME280;44258;51.288;12.068;2023-07-31T09:12:59;99915.88;;;20.17;59.08
58471;BME280;44258;51.288;12.068;2023-07-31T09:15:47;99915.72;;;20.18;59.20
58471;BME280;44258;51.288;12.068;2023-07-31T09:18:52;99905.47;;;20.38;59.09
58471;BME280;44258;51.288;12.068;2023-07-31T09:21:48;99906.09;;;20.32;58.37
58471;BME280;44258;51.288;12.068;2023-07-31T09:24:36;99914.88;;;20.18;58.60
58471;BME280;44258;51.288;12.068;2023-07-31T09:27:23;99912.78;;;20.11;58.67
58471;BME280;44258;51.288;12.068;2023-07-31T09:30:11;99906.06;;;20.06;58.74
58471;BME280;44258;51.288;12.068;2023-07-31T09:33:03;99908.94;;;20.04;59.15
58471;BME280;44258;51.288;12.068;2023-07-31T09:35:51;99900.69;;;20.14;58.27
58471;BME280;44258;51.288;12.068;2023-07-31T09:38:38;99896.91;;;20.15;58.16
58471;BME280;44258;51.288;12.068;2023-07-31T09:41:25;99910.63;;;19.97;58.70
58471;BME280;44258;51.288;12.068;2023-07-31T09:44:12;99893.75;;;20.02;58.45
58471;BME280;44258;51.288;12.068;2023-07-31T09:46:59;99893.75;;;20.02;59.47
58471;BME280;44258;51.288;12.068;2023-07-31T09:49:47;99892.72;;;20.03;60.47
58471;BME280;44258;51.288;12.068;2023-07-31T09:52:34;99894.31;;;20.05;60.55
58471;BME280;44258;51.288;12.068;2023-07-31T09:55:24;99883.38;;;20.31;60.50
58471;BME280;44258;51.288;12.068;2023-07-31T09:58:12;99891.38;;;20.51;59.52
58471;BME280;44258;51.288;12.068;2023-07-31T10:01:01;99870.00;;;20.72;58.47
58471;BME280;44258;51.288;12.068;2023-07-31T10:03:49;99880.97;;;20.81;58.89
58471;BME280;44258;51.288;12.068;2023-07-31T10:06:38;99877.00;;;21.09;58.51
58471;BME280;44258;51.288;12.068;2023-07-31T10:09:26;99865.09;;;21.27;57.75
58471;BME280;44258;51.288;12.068;2023-07-31T10:12:19;99858.81;;;21.51;57.54
58471;BME280;44258;51.288;12.068;2023-07-31T10:15:09;99868.41;;;21.55;57.01
58471;BME280;44258;51.288;12.068;2023-07-31T10:17:57;99865.63;;;21.30;57.49
58471;BME280;44258;51.288;12.068;2023-07-31T10:20:45;99871.44;;;21.27;57.72
58471;BME280;44258;51.288;12.068;2023-07-31T10:23:36;99845.91;;;21.19;57.30
58471;BME280;44258;51.288;12.068;2023-07-31T10:26:26;99871.78;;;21.32;57.83
58471;BME280;44258;51.288;12.068;2023-07-31T10:29:13;99858.81;;;21.43;57.54
58471;BME280;44258;51.288;12.068;2023-07-31T10:32:02;99862.91;;;21.47;56.69
58471;BME280;44258;51.288;12.068;2023-07-31T10:34:52;99878.78;;;21.35;56.88
58471;BME280;44258;51.288;12.068;2023-07-31T10:37:41;99866.78;;;21.20;56.63
58471;BME280;44258;51.288;12.068;2023-07-31T10:40:30;99864.56;;;21.23;57.29
58471;BME280;44258;51.288;12.068;2023-07-31T10:43:24;99868.72;;;21.36;56.96
58471;BME280;44258;51.288;12.068;2023-07-31T10:46:13;99873.72;;;21.57;56.68
58471;BME280;44258;51.288;12.068;2023-07-31T10:49:02;99860.19;;;21.63;55.96
58471;BME280;44258;51.288;12.068;2023-07-31T10:51:49;99858.28;;;21.47;56.43
58471;BME280;44258;51.288;12.068;2023-07-31T10:54:36;99846.19;;;21.58;56.60
58471;BME280;44258;51.288;12.068;2023-07-31T10:57:24;99842.78;;;21.81;55.95
58471;BME280;44258;51.288;12.068;2023-07-31T11:00:18;99832.00;;;21.79;56.17
58471;BME280;44258;51.288;12.068;2023-07-31T11:03:06;99827.53;;;21.53;56.56
58471;BME280;44258;51.288;12.068;2023-07-31T11:06:00;99820.19;;;21.46;56.67
58471;BME280;44258;51.288;12.068;2023-07-31T11:08:50;99813.84;;;21.78;56.26
58471;BME280;44258;51.288;12.068;2023-07-31T11:11:37;99812.81;;;21.87;55.85
58471;BME280;44258;51.288;12.068;2023-07-31T11:14:26;99796.41;;;21.87;56.01
58471;BME280;44258;51.288;12.068;2023-07-31T11:17:13;99793.66;;;22.04;55.33
58471;BME280;44258;51.288;12.068;2023-07-31T11:19:59;99793.13;;;22.17;54.92
58471;BME280;44258;51.288;12.068;2023-07-31T11:22:47;99794.16;;;21.99;55.01
58471;BME280;44258;51.288;12.068;2023-07-31T11:25:35;99786.31;;;21.80;54.98
58471;BME280;44258;51.288;12.068;2023-07-31T11:28:22;99789.22;;;21.70;55.62
58471;BME280;44258;51.288;12.068;2023-07-31T11:31:10;99785.31;;;21.64;55.39
58471;BME280;44258;51.288;12.068;2023-07-31T11:34:04;99780.00;;;21.38;54.87
58471;BME280;44258;51.288;12.068;2023-07-31T11:36:55;99780.34;;;21.51;55.97
58471;BME280;44258;51.288;12.068;2023-07-31T11:39:41;99775.72;;;21.68;54.76
58471;BME280;44258;51.288;12.068;2023-07-31T11:42:28;99778.97;;;21.80;55.00
58471;BME280;44258;51.288;12.068;2023-07-31T11:45:15;99780.34;;;21.84;54.13
58471;BME280;44258;51.288;12.068;2023-07-31T11:48:04;99786.84;;;21.59;53.85
58471;BME280;44258;51.288;12.068;2023-07-31T11:50:51;99777.09;;;21.48;54.49
58471;BME280;44258;51.288;12.068;2023-07-31T11:53:42;99775.06;;;21.33;53.94
58471;BME280;44258;51.288;12.068;2023-07-31T11:56:30;99776.06;;;21.65;54.44
58471;BME280;44258;51.288;12.068;2023-07-31T11:59:17;99772.59;;;21.96;53.77
58471;BME280;44258;51.288;12.068;2023-07-31T12:02:04;99772.25;;;21.99;53.67
58471;BME280;44258;51.288;12.068;2023-07-31T12:04:53;99762.72;;;22.03;53.58
58471;BME280;44258;51.288;12.068;2023-07-31T12:07:44;99764.06;;;22.07;53.51
58471;BME280;44258;51.288;12.068;2023-07-31T12:10:32;99743.69;;;21.93;53.73
58471;BME280;44258;51.288;12.068;2023-07-31T12:13:23;99751.56;;;21.97;53.75
58471;BME280;44258;51.288;12.068;2023-07-31T12:16:10;99746.09;;;22.13;53.48
58471;BME280;44258;51.288;12.068;2023-07-31T12:18:57;99741.09;;;22.17;53.46
58471;BME280;44258;51.288;12.068;2023-07-31T12:21:45;99748.63;;;22.15;53.58
58471;BME280;44258;51.288;12.068;2023-07-31T12:24:34;99741.31;;;22.07;53.35
58471;BME280;44258;51.288;12.068;2023-07-31T12:27:21;99736.16;;;22.12;53.12
58471;BME280;44258;51.288;12.068;2023-07-31T12:30:28;99736.84;;;21.98;54.26
58471;BME280;44258;51.288;12.068;2023-07-31T12:33:15;99742.09;;;22.24;53.93
58471;BME280;44258;51.288;12.068;2023-07-31T12:36:10;99742.06;;;22.32;53.13
58471;BME280;44258;51.288;12.068;2023-07-31T12:38:58;99734.19;;;22.68;52.95
58471;BME280;44258;51.288;12.068;2023-07-31T12:41:45;99725.31;;;22.98;51.96
58471;BME280;44258;51.288;12.068;2023-07-31T12:44:32;99725.69;;;23.18;52.16
58471;BME280;44258;51.288;12.068;2023-07-31T12:47:19;99712.25;;;23.84;50.45
58471;BME280;44258;51.288;12.068;2023-07-31T12:50:07;99725.53;;;24.10;48.78
58471;BME280;44258;51.288;12.068;2023-07-31T12:52:54;99721.09;;;24.09;47.95
58471;BME280;44258;51.288;12.068;2023-07-31T12:55:42;99710.84;;;23.88;47.44
58471;BME280;44258;51.288;12.068;2023-07-31T12:58:31;99721.94;;;24.09;47.42
58471;BME280;44258;51.288;12.068;2023-07-31T13:01:18;99714.34;;;23.97;46.54
58471;BME280;44258;51.288;12.068;2023-07-31T13:04:05;99703.94;;;23.92;47.41
58471;BME280;44258;51.288;12.068;2023-07-31T13:06:54;99710.19;;;24.01;47.77
58471;BME280;44258;51.288;12.068;2023-07-31T13:09:41;99711.69;;;23.88;46.94
58471;BME280;44258;51.288;12.068;2023-07-31T13:12:29;99701.72;;;23.72;46.83
58471;BME280;44258;51.288;12.068;2023-07-31T13:15:17;99698.66;;;23.52;47.28
58471;BME280;44258;51.288;12.068;2023-07-31T13:18:04;99689.94;;;23.49;47.75
58471;BME280;44258;51.288;12.068;2023-07-31T13:20:51;99694.69;;;23.32;48.63
58471;BME280;44258;51.288;12.068;2023-07-31T13:23:37;99705.28;;;22.97;48.97
58471;BME280;44258;51.288;12.068;2023-07-31T13:26:24;99698.22;;;23.03;49.21
58471;BME280;44258;51.288;12.068;2023-07-31T13:29:12;99690.41;;;23.15;49.43
58471;BME280;44258;51.288;12.068;2023-07-31T13:32:00;99683.13;;;23.22;49.31
58471;BME280;44258;51.288;12.068;2023-07-31T13:34:47;99690.81;;;23.03;49.37
58471;BME280;44258;51.288;12.068;2023-07-31T13:37:35;99685.09;;;22.90;49.80
58471;BME280;44258;51.288;12.068;2023-07-31T13:40:21;99686.63;;;22.61;50.56
58471;BME280;44258;51.288;12.068;2023-07-31T13:43:08;99677.53;;;22.61;50.68
58471;BME280;44258;51.288;12.068;2023-07-31T13:45:56;99674.91;;;22.44;51.21
58471;BME280;44258;51.288;12.068;2023-07-31T13:48:48;99669.75;;;22.49;50.77
58471;BME280;44258;51.288;12.068;2023-07-31T13:51:35;99664.75;;;22.53;50.94
58471;BME280;44258;51.288;12.068;2023-07-31T13:54:25;99668.91;;;22.41;50.63
58471;BME280;44258;51.288;12.068;2023-07-31T13:57:12;99666.59;;;22.29;50.84
58471;BME280;44258;51.288;12.068;2023-07-31T13:59:59;99666.19;;;22.41;50.78
58471;BME280;44258;51.288;12.068;2023-07-31T14:02:47;99661.94;;;22.38;51.39
58471;BME280;44258;51.288;12.068;2023-07-31T14:05:34;99661.28;;;22.28;51.81
58471;BME280;44258;51.288;12.068;2023-07-31T14:08:21;99652.50;;;22.01;51.66
58471;BME280;44258;51.288;12.068;2023-07-31T14:11:08;99653.03;;;22.36;51.09
58471;BME280;44258;51.288;12.068;2023-07-31T14:13:55;99650.25;;;22.76;50.65
58471;BME280;44258;51.288;12.068;2023-07-31T14:16:42;99650.38;;;23.05;50.36
58471;BME280;44258;51.288;12.068;2023-07-31T14:19:34;99662.34;;;23.04;49.10
58471;BME280;44258;51.288;12.068;2023-07-31T14:22:27;99648.03;;;23.17;49.43
58471;BME280;44258;51.288;12.068;2023-07-31T14:25:15;99641.81;;;23.23;49.24
58471;BME280;44258;51.288;12.068;2023-07-31T14:28:02;99654.53;;;23.16;48.80
58471;BME280;44258;51.288;12.068;2023-07-31T14:30:49;99666.22;;;22.95;49.17
58471;BME280;44258;51.288;12.068;2023-07-31T14:33:36;99666.16;;;22.80;49.38
58471;BME280;44258;51.288;12.068;2023-07-31T14:36:24;99662.09;;;22.68;49.50